Not logged in
PANGAEA.
Data Publisher for Earth & Environmental Science

Deluisi, John (2009): Radiosonde measurements from station Bondville (2001-07) [dataset]. NOAA - Air Resources Laboratory, Boulder, PANGAEA, https://doi.org/10.1594/PANGAEA.719503

Always quote citation above when using data! You can download the citation in several formats below.

Published: 2009-06-15DOI registered: 2009-07-14

RIS CitationBibTeX Citation ShareShow MapGoogle Earth

Other version:
Deluisi, John (2009): BSRN Station-to-archive file for station Bondville (2001-07) [dataset]. ftp://ftp.bsrn.awi.de/bon/bon0701.dat.gz
Coverage:
Latitude: 40.066667 * Longitude: -88.366667
Date/Time Start: 2001-07-01T11:07:00 * Date/Time End: 2001-07-31T11:56:00
Minimum ALTITUDE: 178 m * Maximum ALTITUDE: 16724 m
Event(s):
BON (Bondville) * Latitude: 40.066667 * Longitude: -88.366667 * Date/Time: 1995-01-01T00:00:00 * Elevation: 213.0 m * Location: Illinois, United States of America * Method/Device: Monitoring station (MONS) * Comment: BSRN station no: 32; Surface type: grass; Topography type: flat, rural; Station scientist: John A. Augustine (john.a.augustine@noaa.gov)
Comment:
Version 2, 2009-06-15; Start location: Lincoln, IL; Distance from radiation site: 82 km; If launch time is exactly 00Z or 12Z, the actual launch time is likely unknown
Parameter(s):
#NameShort NameUnitPrincipal InvestigatorMethod/DeviceComment
DATE/TIMEDate/TimeGeocode
ALTITUDEAltitudemGeocode
Pressure, at given altitudePPPPhPaDeluisi, JohnRadiosonde, Vaisala, RS80-57H
Temperature, airTTT°CDeluisi, JohnRadiosonde, Vaisala, RS80-57H
Dew/frost pointTdTdTd°CDeluisi, JohnRadiosonde, Vaisala, RS80-57H
Wind directiondddegDeluisi, JohnRadiosonde, Vaisala, RS80-57H
Wind speedffm/sDeluisi, JohnRadiosonde, Vaisala, RS80-57H
Size:
6423 data points

Data

Download dataset as tab-delimited text — use the following character encoding:


Date/Time

Altitude [m]

PPPP [hPa]

TTT [°C]

TdTdTd [°C]

dd [deg]

ff [m/s]
2001-07-01T11:0717899521.018.02404
2001-07-01T11:0724898723.621.0
2001-07-01T11:0732897825.817.8
2001-07-01T11:0981492522.415.42757
2001-07-01T11:11154385016.613.63206
2001-07-01T11:12161384316.212.6
2001-07-01T11:12175482915.013.9
2001-07-01T11:15246976111.08.1
2001-07-01T11:1629847158.6-2.4
2001-07-01T11:1731717007.00.03155
2001-07-01T11:1835646674.00.4
2001-07-01T11:224804571-3.9-6.7
2001-07-01T11:245271538-4.9-11.9
2001-07-01T11:255763505-9.1-15.1
2001-07-01T11:255778504-9.3-19.3
2001-07-01T11:265850500-9.1-19.130011
2001-07-01T11:265927495-9.5-16.5
2001-07-01T11:266068486-10.3-22.3
2001-07-01T11:276276473-12.1-17.1
2001-07-01T11:286438463-12.9-25.9
2001-07-01T11:286587454-13.9-23.9
2001-07-01T11:286688448-14.7-27.7
2001-07-01T11:296841439-15.1-23.1
2001-07-01T11:296927434-14.7-34.7
2001-07-01T11:297032428-15.3-35.3
2001-07-01T11:317550400-19.9-37.931012
2001-07-01T11:338140369-25.3-39.3
2001-07-01T11:358813336-29.1-47.1
2001-07-01T11:389610300-36.3-52.330514
2001-07-01T11:4210840250-47.9-56.9
2001-07-01T11:4712280200-59.3-66.3
2001-07-01T11:4913112175-60.5-67.5
2001-07-01T11:5213780157-64.3-74.3
2001-07-01T11:5314060150-62.5-73.5
2001-07-01T11:5314143148-61.7-72.7
2001-07-01T11:5715485119-63.1-78.1
2001-07-01T12:0016417102-69.3-83.3
2001-07-01T12:0116530100-68.5-82.5
2001-07-01T23:0017899723.615.6505
2001-07-01T23:0282992517.612.6506
2001-07-01T23:03118388714.211.0
2001-07-01T23:04154685014.811.03358
2001-07-01T23:05171683314.47.4
2001-07-01T23:06189981513.26.2
2001-07-01T23:06195081012.810.0
2001-07-01T23:06209579611.810.4
2001-07-01T23:0927777338.25.7
2001-07-01T23:0929817157.41.4
2001-07-01T23:1031667006.60.630515
2001-07-01T23:1238926402.0-3.0
2001-07-01T23:1341596190.6-7.4
2001-07-01T23:1443426050.6-26.4
2001-07-01T23:1444625960.4-31.6
2001-07-01T23:154887565-1.9-15.9
2001-07-01T23:195860500-7.7-21.7
2001-07-01T23:206305472-10.1-26.1
2001-07-01T23:216570456-10.3-30.3
2001-07-01T23:247560400-19.5-34.5
2001-07-01T23:268210366-25.9-36.9
2001-07-01T23:288843335-30.3-37.3
2001-07-01T23:319620300-35.7-42.7
2001-07-01T23:3310391268-42.5-47.5
2001-07-01T23:3510860250-45.9-52.9
2001-07-01T23:4012310200-57.9-63.9
2001-07-01T23:4012437196-59.5-65.5
2001-07-01T23:4614090150-63.7-70.7
2001-07-01T23:4614213147-64.3-71.3
2001-07-01T23:4814918131-63.1-71.1
2001-07-01T23:5115866112-68.7-76.7
2001-07-01T23:5216085108-65.7-74.7
2001-07-01T23:5416550100-67.3-76.332515
2001-07-02T11:08178100410.45.4603
2001-07-02T11:08210100010.85.8654
2001-07-02T11:0944697211.41.4
2001-07-02T11:1080493110.62.6
2001-07-02T11:1086092511.2-1.8956
2001-07-02T11:1088792211.8-6.2
2001-07-02T11:11100690914.4-13.6
2001-07-02T11:13156985011.4-11.63603
2001-07-02T11:14199080811.8-26.2
2001-07-02T11:16259775110.6-20.4
2001-07-02T11:16270874110.0-16.0
2001-07-02T11:1627537379.6-2.4
2001-07-02T11:1728777268.4-2.6
2001-07-02T11:1729687187.61.6
2001-07-02T11:1831817006.0-2.031012
2001-07-02T11:1832766925.21.3
2001-07-02T11:1936216632.41.1
2001-07-02T11:255460525-9.1-13.2
2001-07-02T11:275850500-10.1-18.130513
2001-07-02T11:275943494-10.7-20.7
2001-07-02T11:276037488-10.7-26.7
2001-07-02T11:306979431-16.3-41.3
2001-07-02T11:327540400-20.3-46.329518
2001-07-02T11:378913331-29.5-50.5
2001-07-02T11:399610300-35.3-53.329026
2001-07-02T11:4310840250-47.1-54.129029
2001-07-02T11:4711936211-56.5-61.1
2001-07-02T11:4812280200-57.9-62.631034
2001-07-02T11:5414060150-63.1-70.131527
2001-07-02T11:5414354143-61.9-69.9
2001-07-02T11:5815527118-66.3-77.3
2001-07-02T12:0015956110-61.9-74.9
2001-07-02T12:0216550100-63.1-77.132512
2001-07-02T23:0517899924.49.41504
2001-07-02T23:0784692517.08.01906
2001-07-02T23:08102190615.27.2
2001-07-02T23:08113389414.81.8
2001-07-02T23:08119088816.8-18.2
2001-07-02T23:08122888417.0-21.0
2001-07-02T23:10156385015.8-7.22654
2001-07-02T23:10165384115.07.0
2001-07-02T23:10179482714.69.6
2001-07-02T23:12226278212.45.4
2001-07-02T23:13248976112.81.8
2001-07-02T23:1531927007.6-1.43009
2001-07-02T23:1635996665.6-4.4
2001-07-02T23:1841126251.6-3.4
2001-07-02T23:194412602-0.3-8.3
2001-07-02T23:204858569-4.3-6.6
2001-07-02T23:225267540-5.9-12.9
2001-07-02T23:225326536-6.1-18.1
2001-07-02T23:235681512-8.5-20.5
2001-07-02T23:235787505-9.7-15.7
2001-07-02T23:245880500-9.9-17.931010
2001-07-02T23:246019491-11.1-19.1
2001-07-02T23:246097486-11.5-15.5
2001-07-02T23:256368469-13.1-16.6
2001-07-02T23:266499461-13.5-20.5
2001-07-02T23:287145423-18.3-21.9
2001-07-02T23:287305414-19.3-26.3
2001-07-02T23:297560400-21.7-28.727016
2001-07-02T23:307689393-22.7-28.7
2001-07-02T23:307858384-24.1-33.1
2001-07-02T23:317972378-25.1-29.7
2001-07-02T23:318205366-26.7-37.7
2001-07-02T23:328444354-28.9-38.9
2001-07-02T23:338668343-30.3-33.0
2001-07-02T23:338814336-31.3-33.5
2001-07-02T23:349092323-32.9-35.8
2001-07-02T23:359312313-34.3-41.3
2001-07-02T23:359424308-35.1-39.7
2001-07-02T23:369610300-35.9-41.927515
2001-07-02T23:3810182276-40.3-48.3
2001-07-02T23:4010850250-46.1-53.128022
2001-07-02T23:4512300200-56.9-65.927520
2001-07-02T23:4612556192-59.3-67.3
2001-07-02T23:5114100150-62.7-73.727522
2001-07-02T23:5114266146-63.1-74.1
2001-07-02T23:5214526140-60.3-72.3
2001-07-02T23:5515421121-65.3-79.3
2001-07-02T23:5515574118-62.5-76.5
2001-07-02T23:5916590100-62.9-78.93108
2001-07-03T11:1117899718.013.42105
2001-07-03T11:1129098418.812.8
2001-07-03T11:1244096723.220.0
2001-07-03T11:1382892521.619.525516
2001-07-03T11:16155885016.816.328512
2001-07-03T11:17207879912.812.8
2001-07-03T11:1925817529.69.6
2001-07-03T11:2027817349.63.6
2001-07-03T11:2131867006.81.828013
2001-07-03T11:2235796674.22.4
2001-07-03T11:2339266392.4-3.6
2001-07-03T11:285445527-8.5-10.4
2001-07-03T11:295683511-9.7-14.7
2001-07-03T11:305860500-11.3-14.828514
2001-07-03T11:316250475-14.7-16.1
2001-07-03T11:326443463-14.9-20.9
2001-07-03T11:336741445-16.7-23.7
2001-07-03T11:336877437-17.1-32.1
2001-07-03T11:337032428-18.3-28.3
2001-07-03T11:347137422-19.1-34.1
2001-07-03T11:357540400-21.7-37.729517
2001-07-03T11:367896381-23.9-38.9
2001-07-03T11:378208365-24.1-37.1
2001-07-03T11:419281314-34.1-41.1
2001-07-03T11:429610300-35.7-48.732023
2001-07-03T11:4610850250-46.1-54.131528
2001-07-03T11:4911683220-53.9-58.6
2001-07-03T11:5112290200-58.5-62.732038
2001-07-03T11:5212676188-61.1-65.5
2001-07-03T11:5714070150-62.7-69.730023
2001-07-03T11:5814406142-63.3-71.3
2001-07-03T11:5814582138-60.3-70.3
2001-07-03T12:0316035109-64.1-78.1
2001-07-03T12:0516570100-63.7-78.732513
2001-07-06T11:1417899912.29.41502
2001-07-06T11:1426298915.010.3
2001-07-06T11:1544396817.67.6
2001-07-06T11:1683092515.67.62652
2001-07-06T11:18136386811.65.6
2001-07-06T11:18149885412.8-10.2
2001-07-06T11:18154285012.8-12.23006
2001-07-06T11:19172183214.0-19.0
2001-07-06T11:2123987679.8-10.2
2001-07-06T11:2225067579.8-22.2
2001-07-06T11:2329317199.2-30.8
2001-07-06T11:2431587008.2-24.833510
2001-07-06T11:2535056716.4-16.6
2001-07-06T11:2536776576.4-30.6
2001-07-06T11:335850500-8.7-32.733018
2001-07-06T11:387550400-19.7-38.734523
2001-07-06T11:408063373-24.1-31.1
2001-07-06T11:418502351-27.3-32.3
2001-07-06T11:428814336-29.7-36.7
2001-07-06T11:449291314-33.9-37.3
2001-07-06T11:459610300-36.1-40.435533
2001-07-06T11:4910850250-46.3-53.335040
2001-07-06T11:5412300200-56.5-63.536042
2001-07-06T11:5512622190-59.5-66.5
2001-07-06T12:0014080150-63.5-75.536037
2001-07-06T12:0214681136-62.9-75.9
2001-07-06T12:0816560100-65.1-82.135017
2001-07-06T23:0117899524.213.21605
2001-07-06T23:0381392518.611.62007
2001-07-06T23:04103790117.410.4
2001-07-06T23:04121888219.03.0
2001-07-06T23:05133587018.29.2
2001-07-06T23:05153885018.6-6.42756
2001-07-06T23:06182382218.8-12.2
2001-07-06T23:09253175614.45.4
2001-07-06T23:10280173212.41.4
2001-07-06T23:10295071912.2-11.8
2001-07-06T23:11318370011.2-19.831014
2001-07-06T23:12338768311.0-21.0
2001-07-06T23:1440766285.0-18.0
2001-07-06T23:1646485851.4-18.6
2001-07-06T23:1647315791.0-11.0
2001-07-06T23:205900500-7.1-23.132516
2001-07-06T23:216362471-9.7-30.7
2001-07-06T23:226660453-12.5-17.2
2001-07-06T23:236864441-13.9-17.2
2001-07-06T23:236968435-14.3-22.3
2001-07-06T23:257600400-18.3-26.3
2001-07-06T23:277980380-20.9-29.9
2001-07-06T23:278156371-22.5-26.3
2001-07-06T23:319469309-31.9-34.9
2001-07-06T23:329690300-32.7-37.6
2001-07-06T23:339832294-33.7-40.7
2001-07-06T23:3510523266-39.5-45.5
2001-07-06T23:3610940250-42.9-51.9
2001-07-06T23:3711185241-44.9-55.9
2001-07-06T23:4112410200-55.9-66.9
2001-07-06T23:4313036181-60.9-70.9
2001-07-06T23:4714190150-65.7-74.735512
2001-07-06T23:5516620100-67.1-79.136012
2001-07-07T11:0517899219.818.32005
2001-07-07T11:0764394025.821.1
2001-07-07T11:0779092526.020.026023
2001-07-07T11:0894390927.012.0
2001-07-07T11:09128787426.47.4
2001-07-07T11:09133786925.414.4
2001-07-07T11:09153585023.814.827518
2001-07-07T11:11206979921.010.0
2001-07-07T11:15320170011.07.130012
2001-07-07T11:1737116586.85.9
2001-07-07T11:1840786295.0-3.0
2001-07-07T11:2046095892.0-1.6
2001-07-07T11:215111553-3.1-3.1
2001-07-07T11:215197547-3.7-3.7
2001-07-07T11:225284541-3.5-8.3
2001-07-07T11:235685514-6.7-10.1
2001-07-07T11:245920500-7.7-12.732515
2001-07-07T11:246124487-8.9-15.9
2001-07-07T11:256188483-9.3-13.1
2001-07-07T11:266447467-10.7-14.9
2001-07-07T11:276833444-12.5-23.5
2001-07-07T11:287129427-14.9-27.9
2001-07-07T11:297416411-17.3-23.3
2001-07-07T11:297620400-18.7-28.732014
2001-07-07T11:307657398-18.7-32.7
2001-07-07T11:307770392-19.3-28.3
2001-07-07T11:338808340-27.5-34.5
2001-07-07T11:369700300-33.5-47.533515
2001-07-07T11:4010950250-43.3-56.335021
2001-07-07T11:4311736222-49.7-62.7
2001-07-07T11:4512420200-54.5-64.5
2001-07-07T11:5114200150-69.3-74.3
2001-07-07T11:5515374123-71.7-77.7
2001-07-07T11:5615620118-68.5-74.5
2001-07-07T11:5916610100-68.5-76.5
2001-07-07T23:0117899034.025.02307
2001-07-07T23:0379292527.822.82558
2001-07-07T23:05128687422.820.7
2001-07-07T23:05149685321.619.0
2001-07-07T23:05153685022.817.82759
2001-07-07T23:06159784424.811.8
2001-07-07T23:06179582524.210.2
2001-07-07T23:11320870013.20.228516
2001-07-07T23:1440386335.8-2.2
2001-07-07T23:1544186043.6-0.4
2001-07-07T23:185284542-2.5-7.5
2001-07-07T23:205930500-7.1-11.529517
2001-07-07T23:216358473-10.7-12.9
2001-07-07T23:236772448-13.9-17.7
2001-07-07T23:257492407-18.7-30.7
2001-07-07T23:257630400-18.7-22.630016
2001-07-07T23:278010380-20.3-23.1
2001-07-07T23:329720300-31.9-34.929518
2001-07-07T23:3310031287-34.3-42.3
2001-07-07T23:3510608264-38.7-51.7
2001-07-07T23:3610980250-41.9-52.93009
2001-07-07T23:4112450200-54.1-61.131012
2001-07-07T23:4312910186-58.3-64.3
2001-07-07T23:4714240150-68.9-73.929011
2001-07-07T23:5115476122-67.9-72.9
2001-07-07T23:5516650100-68.7-74.73409
2001-07-08T11:0117899223.822.82203
2001-07-08T11:0124098526.823.1
2001-07-08T11:0380092525.819.828516
2001-07-08T11:0494391026.417.4
2001-07-08T11:05127687624.615.6
2001-07-08T11:05154385022.016.030011
2001-07-08T11:07208479818.214.2
2001-07-08T11:08231077716.612.6
2001-07-08T11:09251975816.26.2
2001-07-08T11:10290572413.07.0
2001-07-08T11:11320070011.03.027511
2001-07-08T11:1234166829.4-1.6
2001-07-08T11:1235386728.61.6
2001-07-08T11:1339376405.6-1.4
2001-07-08T11:1441176265.2-5.8
2001-07-08T11:1543006123.6-3.4
2001-07-08T11:1543936053.2-6.8
2001-07-08T11:1545275952.2-2.8
2001-07-08T11:175084555-0.7-10.7
2001-07-08T11:185301540-2.5-11.5
2001-07-08T11:195598520-5.3-8.5
2001-07-08T11:195643517-5.5-9.9
2001-07-08T11:195673515-5.3-14.3
2001-07-08T11:205920500-6.7-11.731514
2001-07-08T11:216252479-9.5-14.5
2001-07-08T11:216300476-9.5-19.5
2001-07-08T11:226463466-10.5-20.5
2001-07-08T11:226579459-10.9-31.9
2001-07-08T11:226663454-11.1-34.1
2001-07-08T11:226714451-11.5-26.5
2001-07-08T11:236833444-12.3-32.3
2001-07-08T11:236885441-12.9-23.9
2001-07-08T11:247059431-13.7-22.7
2001-07-08T11:257620400-17.7-28.730513
2001-07-08T11:277962382-19.5-34.5
2001-07-08T11:309156324-30.1-40.1
2001-07-08T11:329560306-32.3-53.3
2001-07-08T11:329710300-33.7-52.731014
2001-07-08T11:3310018287-35.9-49.9
2001-07-08T11:3610960250-42.7-59.731513
2001-07-08T11:3811487231-46.7-62.7
2001-07-08T11:4011928216-49.9-55.9
2001-07-08T11:4112430200-54.1-58.634017
2001-07-08T11:4714220150-67.3-73.332018
2001-07-08T11:5215653118-69.9-76.9
2001-07-08T11:5516620100-70.5-78.5
2001-07-08T23:0017898928.823.81403
2001-07-08T23:0135896928.023.5
2001-07-08T23:0151495230.216.2
2001-07-08T23:0277892528.413.42053
2001-07-08T23:0395190726.612.6
2001-07-08T23:04125587625.814.8
2001-07-08T23:04152485024.88.83109
2001-07-08T23:05175282823.87.8
2001-07-08T23:08250975816.68.6
2001-07-08T23:09288472513.63.6
2001-07-08T23:10318870011.24.229514
2001-07-08T23:1341296243.41.7
2001-07-08T23:1444585991.8-2.1
2001-07-08T23:154882568-1.7-4.4
2001-07-08T23:164966562-1.3-6.3
2001-07-08T23:195900500-8.5-11.529025
2001-07-08T23:206168483-7.9-10.7
2001-07-08T23:226780446-12.5-12.9
2001-07-08T23:247610400-17.1-18.232015
2001-07-08T23:319710300-30.7-34.830014
2001-07-08T23:3410397272-35.7-42.7
2001-07-08T23:3510980250-40.3-45.229516
2001-07-08T23:3811805221-47.7-50.9
2001-07-08T23:4012460200-53.3-56.531515
2001-07-08T23:4614250150-67.7-71.42557
2001-07-08T23:4714535143-70.1-73.8
2001-07-08T23:5015574120-70.5-74.8
2001-07-08T23:5216086110-72.5-77.0
2001-07-08T23:5316306106-67.3-72.3
2001-07-08T23:5416650100-66.1-72.13457
2001-07-09T11:1117899122.222.21702
2001-07-09T11:1239096724.424.1
2001-07-09T11:1377992524.219.23155
2001-07-09T11:15151685020.014.03059
2001-07-09T11:16183381918.810.8
2001-07-09T11:21316570010.23.23159
2001-07-09T11:2235996647.00.0
2001-07-09T11:2442216152.4-0.2
2001-07-09T11:275111550-2.7-6.0
2001-07-09T11:295568519-4.1-12.1
2001-07-09T11:305880500-6.3-14.331511
2001-07-09T11:316327472-9.3-19.3
2001-07-09T11:336918437-11.5-27.5
2001-07-09T11:347059429-12.7-24.7
2001-07-09T11:357347413-14.9-33.9
2001-07-09T11:357590400-17.3-28.3
2001-07-09T11:367817388-19.3-29.3
2001-07-09T11:378248366-21.5-39.5
2001-07-09T11:398766341-23.7-38.7
2001-07-09T11:419293317-28.1-48.1
2001-07-09T11:429690300-31.1-46.1
2001-07-09T11:4610950250-41.5-53.5
2001-07-09T11:4711281238-44.5-54.5
2001-07-09T11:5112430200-52.9-63.9
2001-07-09T11:5714220150-66.9-73.9
2001-07-09T12:0516656100-69.1-76.1
2001-07-09T23:0817899031.222.2105
2001-07-09T23:1078292525.420.4204
2001-07-09T23:11108889322.817.8
2001-07-09T23:11121588022.413.4
2001-07-09T23:12152085019.613.63555
2001-07-09T23:13173382918.012.0
2001-07-09T23:14213179116.6-4.4
2001-07-09T23:15220678415.80.8
2001-07-09T23:16252475515.0-12.0
2001-07-09T23:18316570011.4-20.63208
2001-07-09T23:19343067810.2-24.8
2001-07-09T23:2244545982.2-25.8
2001-07-09T23:2245625901.8-16.2
2001-07-09T23:234866568-0.9-18.9
2001-07-09T23:244936563-0.7-9.7
2001-07-09T23:265653514-6.3-12.3
2001-07-09T23:275880500-6.9-17.932016
2001-07-09T23:275958495-7.5-13.5
2001-07-09T23:286148483-8.7-15.7
2001-07-09T23:286228478-9.1-25.1
2001-07-09T23:286358470-9.9-14.9
2001-07-09T23:296440465-10.3-16.3
2001-07-09T23:296573457-9.7-26.7
2001-07-09T23:306743447-10.5-23.5
2001-07-09T23:327590400-16.3-34.3
2001-07-09T23:348032377-19.1-37.1
2001-07-09T23:348211368-20.1-33.1
2001-07-09T23:358332362-21.3-37.3
2001-07-09T23:358414358-21.9-31.9
2001-07-09T23:368834338-24.1-38.1
2001-07-09T23:399690300-31.1-42.1
2001-07-09T23:4110348273-37.5-45.5
2001-07-09T23:4310960250-42.3-51.3
2001-07-09T23:4611751222-48.1-60.1
2001-07-09T23:4812430200-53.9-63.9
2001-07-09T23:4912657193-55.7-64.7
2001-07-09T23:5414220150-66.7-75.728525
2001-07-10T00:0015978112-67.5-76.5
2001-07-10T00:0216640100-68.9-79.92757
2001-07-10T11:0517899020.020.03402
2001-07-10T11:0636396926.221.2
2001-07-10T11:0777692523.619.42852
2001-07-10T11:08109089221.615.6
2001-07-10T11:09130487019.415.7
2001-07-10T11:09151085018.412.43102
2001-07-10T11:10183781818.4-3.6
2001-07-10T11:1531497008.8-3.23356
2001-07-10T11:1634116787.0-3.0
2001-07-10T11:1634726737.0-9.0
2001-07-10T11:1636686575.8-9.2
2001-07-10T11:1737056546.0-17.0
2001-07-10T11:1738816404.6-4.4
2001-07-10T11:1840866243.2-4.8
2001-07-10T11:1943486041.6-8.4
2001-07-10T11:1943766021.6-15.4
2001-07-10T11:1944555961.4-10.6
2001-07-10T11:214981558-0.9-17.9
2001-07-10T11:225314535-3.7-16.7
2001-07-10T11:235689510-5.3-25.3
2001-07-10T11:245860500-5.7-20.731012
2001-07-10T11:256129483-8.1-18.1
2001-07-10T11:297570400-16.9-33.932016
2001-07-10T11:307683394-17.9-34.9
2001-07-10T11:307876384-17.5-38.5
2001-07-10T11:328497353-22.5-44.5
2001-07-10T11:369670300-32.3-44.331023
2001-07-10T11:4010930250-41.9-54.9
2001-07-10T11:4311810219-49.1-56.1
2001-07-10T11:4512400200-54.1-61.1
2001-07-10T11:5114190150-67.1-76.1
2001-07-10T11:5214434144-69.5-77.5
2001-07-10T11:5715987111-68.1-76.1
2001-07-10T11:5916600100-68.5-77.5
2001-07-10T23:0617898832.019.03304
2001-07-10T23:0876992526.018.03257
2001-07-10T23:10150685018.616.43257
2001-07-10T23:11178082316.016.0
2001-07-10T23:11185281615.615.6
2001-07-10T23:12192680915.411.4
2001-07-10T23:12207279514.411.2
2001-07-10T23:13223278014.67.6
2001-07-10T23:13235176913.45.4
2001-07-10T23:13239576512.87.8
2001-07-10T23:13241776312.44.4
2001-07-10T23:14247275813.07.0
2001-07-10T23:14253875213.0-7.0
2001-07-10T23:15294771611.4-19.6
2001-07-10T23:1631457009.8-7.232513
2001-07-10T23:1633126868.8-16.2
2001-07-10T23:1837536505.2-15.8
2001-07-10T23:2044026003.8-27.2
2001-07-10T23:2146615811.6-9.4
2001-07-10T23:2249135630.0-24.0
2001-07-10T23:255860500-6.1-16.1
2001-07-10T23:286966433-13.7-20.7
2001-07-10T23:297197420-14.5-27.5
2001-07-10T23:307570400-16.5-32.5
2001-07-10T23:317817387-18.3-27.3
2001-07-10T23:348580349-22.5-33.5
2001-07-10T23:379670300-31.3-41.3
2001-07-10T23:3810031285-33.3-46.3
2001-07-10T23:4110940250-41.7-48.7
2001-07-10T23:4311412233-45.7-52.7
2001-07-10T23:4411881217-49.1-61.1
2001-07-10T23:4612410200-52.3-64.330034
2001-07-10T23:5113963156-65.9-74.9
2001-07-10T23:5214210150-66.9-74.929528
2001-07-10T23:5615451122-67.9-75.9
2001-07-11T00:0016630100-68.5-77.530011
2001-07-11T10:5917899317.214.5405
2001-07-11T11:0051095520.08.0
2001-07-11T11:0178892518.87.87012
2001-07-11T11:02113688818.610.6
2001-07-11T11:03151285016.210.23406
2001-07-11T11:0621667869.87.6
2001-07-11T11:06226177711.0-2.0
2001-07-11T11:06241276311.4-9.6
2001-07-11T11:0829277179.0-12.0
2001-07-11T11:0830547067.8-7.2
2001-07-11T11:0931347007.6-9.431513
2001-07-11T11:1035666646.6-21.4
2001-07-11T11:1137526496.0-14.0
2001-07-11T11:165372530-4.5-31.5
2001-07-11T11:185840500-7.3-20.331515
2001-07-11T11:196302471-9.9-33.9
2001-07-11T11:227336411-16.9-25.9
2001-07-11T11:237540400-17.7-25.733521
2001-07-11T11:247786387-18.5-28.5
2001-07-11T11:268421355-23.5-30.5
2001-07-11T11:278735340-24.3-36.3
2001-07-11T11:309640300-32.5-41.5
2001-07-11T11:319901289-35.3-42.3
2001-07-11T11:3410782250
2001-07-11T11:3812180200
2001-07-11T11:4113124177-60.9-69.9
2001-07-11T11:4413983150
2001-07-11T11:4714770135-69.3-78.3
2001-07-11T11:5316524100
2001-07-11T23:0317899325.612.6806
2001-07-11T23:0579692519.29.2655
2001-07-11T23:07151485012.25.2404
2001-07-11T23:08157384413.0-2.0
2001-07-11T23:08170383113.2-9.8
2001-07-11T23:09213678911.8-18.2
2001-07-11T23:10232877113.0-30.0
2001-07-11T23:13313870011.4-28.631510
2001-07-11T23:1642016154.6-28.4
2001-07-11T23:205297536-4.9-30.9
2001-07-11T23:215626514-6.1-32.1
2001-07-11T23:225850500-7.9-17.931015
2001-07-11T23:236149481-9.7-16.7
2001-07-11T23:236360468-9.5-17.5
2001-07-11T23:267200419-16.3-20.0
2001-07-11T23:267326412-17.1-21.1
2001-07-11T23:277550400-16.9-28.9
2001-07-11T23:287777388-17.9-32.9
2001-07-11T23:328919332-26.5-37.5
2001-07-11T23:349650300-31.1-47.1
2001-07-11T23:3810910250-42.3-55.330525
2001-07-11T23:4312380200-54.7-63.730030
2001-07-11T23:4914160150-68.1-75.130028
2001-07-11T23:5215069129-65.3-72.3
2001-07-11T23:5716620100-65.1-74.133011
2001-07-12T11:0517899616.612.8802
2001-07-12T11:0528198419.89.8
2001-07-12T11:0637797320.05.0
2001-07-12T11:0781392517.27.2806
2001-07-12T11:08101690315.29.2
2001-07-12T11:09152885011.85.8557
2001-07-12T11:1018468189.80.8
2001-07-12T11:11196880610.4-14.6
2001-07-12T11:12228277610.6-24.4
2001-07-12T11:1326307448.8-27.2
2001-07-12T11:1429107196.8-14.2
2001-07-12T11:1429907126.4-21.6
2001-07-12T11:1531367005.6-10.42857
2001-07-12T11:1532776885.0-8.0
2001-07-12T11:1533246845.2-1.8
2001-07-12T11:1635166684.21.6
2001-07-12T11:1737006533.2-3.8
2001-07-12T11:1737506492.60.2
2001-07-12T11:1739136362.02.0
2001-07-12T11:225331532-4.3-4.3
2001-07-12T11:245830500-7.7-8.530013
2001-07-12T11:297530400-18.5-20.130521
2001-07-12T11:318185366-23.1-24.1
2001-07-12T11:338573347-25.3-28.1
2001-07-12T11:338720340-26.5-31.5
2001-07-12T11:359311313-30.5-36.5
2001-07-12T11:369620300-32.9-41.9
2001-07-12T11:3710027283-35.7-48.7
2001-07-12T11:3810326271-37.7-43.7
2001-07-12T11:4010870250-41.7-44.7
2001-07-12T11:4512350200-54.5-57.928044
2001-07-12T11:5013779159-65.1-69.5
2001-07-12T11:5114130150-66.3-70.730535
2001-07-12T11:5314726136-63.3-69.3
2001-07-12T11:5715906112-66.7-74.7
2001-07-12T11:5916600100-65.9-74.935511
2001-07-12T23:0517899625.016.0605
2001-07-12T23:0524898824.810.8
2001-07-12T23:0781892519.010.0605
2001-07-12T23:09153685012.08.0604
2001-07-12T23:1120887957.05.4
2001-07-12T23:1222237826.62.9
2001-07-12T23:1222977757.8-7.2
2001-07-12T23:1429727149.6-30.4
2001-07-12T23:1531427009.0-21.03407
2001-07-12T23:1532846887.6-6.4
2001-07-12T23:1739866312.4-11.6
2001-07-12T23:1841926151.0-20.0
2001-07-12T23:1943106060.0-14.0
2001-07-12T23:194523590-0.9-12.9
2001-07-12T23:204672579-1.5-7.5
2001-07-12T23:215207541-4.7-8.3
2001-07-12T23:225413527-4.5-11.5
2001-07-12T23:245840500-7.5-13.531516
2001-07-12T23:276753444-12.5-20.5
2001-07-12T23:287336411-16.9-30.9
2001-07-12T23:297540400-18.7-26.731520
2001-07-12T23:307671393-20.1-28.1
2001-07-12T23:307842384-20.3-35.3
2001-07-12T23:318076372-22.5-34.5
2001-07-12T23:328376357-23.9-42.9
2001-07-12T23:369630300-32.9-44.9
2001-07-12T23:379819292-34.5-44.5
2001-07-12T23:4010880250-41.9-57.9
2001-07-12T23:4512360200-52.5-65.5
2001-07-12T23:5013864158-56.9-68.9
2001-07-12T23:5114170150-58.1-71.131518
2001-07-12T23:5816243107-67.9-82.9
2001-07-12T23:5916670100-67.5-82.5
2001-07-13T11:0117899813.811.0402
2001-07-13T11:0121299421.05.0
2001-07-13T11:0124799021.44.4
2001-07-13T11:0252995819.611.6
2001-07-13T11:0383392517.610.63404
2001-07-13T11:04113189315.410.4
2001-07-13T11:05134187114.44.4
2001-07-13T11:05155085012.63.6358
2001-07-13T11:0823327735.20.2
2001-07-13T11:0925567525.2-8.8
2001-07-13T11:0927437358.6-28.4
2001-07-13T11:1028787238.6-30.4
2001-07-13T11:1131517007.0-34.034512
2001-07-13T11:1337676494.6-40.4
2001-07-13T11:164778572-2.7-35.7
2001-07-13T11:175059552-2.7-36.7
2001-07-13T11:205840500-8.3-42.334016
2001-07-13T11:216382466-11.3-38.3
2001-07-13T11:257530400-20.5-44.534023
2001-07-13T11:298600345-30.3-49.3
2001-07-13T11:329580300-37.1-59.133528
2001-07-13T11:3310079279-40.5-62.5
2001-07-13T11:3610830250-43.7-66.733036
2001-07-13T11:3811416229-46.3-69.3
2001-07-13T11:4112310200-46.5-71.532023
2001-07-13T11:4714170150-58.5-81.532015
2001-07-13T11:5115340124-66.7-86.7
2001-07-13T11:5516640100-68.7-86.734514
2001-07-13T23:1117899727.014.0106
2001-07-13T23:1132898026.010.0
2001-07-13T23:1383492520.89.83607
2001-07-13T23:16155685013.87.83456
2001-07-13T23:17192781310.26.7
2001-07-13T23:1823217757.8-5.2
2001-07-13T23:1824177668.8-14.2
2001-07-13T23:1927117396.8-16.2
2001-07-13T23:2131637007.4-33.6510
2001-07-13T23:2236316615.8-37.2
2001-07-13T23:285217542-4.7-39.7
2001-07-13T23:285377531-5.9-23.9
2001-07-13T23:295555519-5.9-42.9
2001-07-13T23:305850500-7.5-40.531511
2001-07-13T23:337020429-15.5-36.5
2001-07-13T23:357550400-20.3-36.332520
2001-07-13T23:388357358-27.7-38.7
2001-07-13T23:419308313-33.9-48.9
2001-07-13T23:429610300-36.3-48.333032
2001-07-13T23:439938286-39.3-46.3
2001-07-13T23:4510482264-41.9-57.9
2001-07-13T23:4610850250-43.9-59.932529
2001-07-13T23:5112330200-49.7-69.732025
2001-07-13T23:5714180150-56.5-77.5
2001-07-14T00:0516670100-68.5-87.5
2001-07-14T11:0117899810.69.32402
2001-07-14T11:0233298021.63.6
2001-07-14T11:0363694621.01.0
2001-07-14T11:0383592518.86.8454
2001-07-14T11:06155285012.21.2653
2001-07-14T11:06167083811.8-4.2
2001-07-14T11:0924977586.4-10.6
2001-07-14T11:0925517537.6-24.4
2001-07-14T11:0926067488.2-24.8
2001-07-14T11:1131557006.8-33.23605
2001-07-14T11:1442156140.8-36.2
2001-07-14T11:164723576-2.1-23.1
2001-07-14T11:164862566-1.7-34.7
2001-07-14T11:185291536-4.5-29.5
2001-07-14T11:185379530-5.1-19.1
2001-07-14T11:195588516-7.1-20.1
2001-07-14T11:195648512-7.1-25.1
2001-07-14T11:205840500-7.9-25.934512
2001-07-14T11:216139481-9.3-32.3
2001-07-14T11:247240416-17.7-34.7
2001-07-14T11:257540400-19.9-31.932514
2001-07-14T11:278072372-24.7-32.7
2001-07-14T11:319259315-32.9-46.9
2001-07-14T11:329600300-35.7-49.732015
2001-07-14T11:3510422266-42.5-53.5
2001-07-14T11:3610840250-45.1-62.133523
2001-07-14T11:4112310200-52.3-70.332524
2001-07-14T11:4513453167-59.7-75.7
2001-07-14T11:4714120150-60.5-74.532013
2001-07-14T11:5516620100-64.5-80.5
2001-07-15T11:0017899612.812.61202
2001-07-15T11:0146496322.010.0
2001-07-15T11:0281792519.87.82304
2001-07-15T11:03104190117.85.8
2001-07-15T11:04153785013.65.61653
2001-07-15T11:0619998049.25.4
2001-07-15T11:07232477310.4-24.6
2001-07-15T11:0928887229.0-31.0
2001-07-15T11:1031497007.4-13.61052
2001-07-15T11:1033386846.4-12.6
2001-07-15T11:1133986795.6-5.4
2001-07-15T11:1135676654.4-5.6
2001-07-15T11:1136536584.2-16.8
2001-07-15T11:1237896473.8-18.2
2001-07-15T11:1238776403.0-18.0
2001-07-15T11:1239666332.0-6.0
2001-07-15T11:144341604-1.1-8.1
2001-07-15T11:144554588-1.3-19.3
2001-07-15T11:154704577-2.3-9.3
2001-07-15T11:154885564-1.3-17.3
2001-07-15T11:175215541-2.9-23.9
2001-07-15T11:175288536-1.7-32.7
2001-07-15T11:195840500-5.7-28.73258
2001-07-15T11:247550400-18.9-40.932513
2001-07-15T11:247643395-19.5-42.5
2001-07-15T11:268243364-24.3-32.3
2001-07-15T11:278343359-25.1-29.3
2001-07-15T11:278547349-25.9-34.9
2001-07-15T11:298905332-28.9-33.7
2001-07-15T11:299057325-30.1-37.1
2001-07-15T11:319620300-34.5-40.533022
2001-07-15T11:3410676257-44.3-48.2
2001-07-15T11:3510870250-44.9-50.932023
2001-07-15T11:3611197238-46.5-56.5
2001-07-15T11:4012330200-55.1-64.132528
2001-07-15T11:4213030179-59.3-69.3
2001-07-15T11:4614130150-64.5-71.5
2001-07-15T11:4614171149-64.7-71.7
2001-07-15T11:5416580100-66.7-80.7
2001-07-15T23:0817899427.014.01803
2001-07-15T23:1080892521.211.21656
2001-07-15T23:12143885915.010.0
2001-07-15T23:12153285014.67.61554
2001-07-15T23:13174282913.04.0
2001-07-15T23:14202980113.4-21.6
2001-07-15T23:17280273010.6-36.4
2001-07-15T23:1831537009.0-38.02155
2001-07-15T23:2037846484.4-20.6
2001-07-15T23:2141156222.4-31.6
2001-07-15T23:2245265910.4-19.6
2001-07-15T23:234661581-0.9-12.9
2001-07-15T23:234841568-2.1-14.1
2001-07-15T23:255358532-3.3-34.3
2001-07-15T23:265674511-5.1-34.1
2001-07-15T23:275850500-6.3-32.32854
2001-07-15T23:296713447-12.3-40.3
2001-07-15T23:306868438-12.9-21.9
2001-07-15T23:327348411-16.3-22.3
2001-07-15T23:327560400-17.9-24.929512
2001-07-15T23:337902382-19.7-26.7
2001-07-15T23:358379358-23.3-34.3
2001-07-15T23:399640300-32.9-43.930014
2001-07-15T23:409877290-35.1-46.1
2001-07-15T23:4310900250-42.7-47.530020
2001-07-15T23:4812370200-54.9-60.931527
2001-07-15T23:4912795187-58.3-64.3
2001-07-15T23:5414160150-63.3-70.332024
2001-07-15T23:5915818114-69.1-77.1
2001-07-16T00:0216610100-66.3-75.33557
2001-07-16T11:0117899518.016.01402
2001-07-16T11:0237097323.215.2
2001-07-16T11:0381092520.413.41857
2001-07-16T11:05153285014.09.02255
2001-07-16T11:07187381611.25.2
2001-07-16T11:07207979611.2-1.8
2001-07-16T11:08216378811.8-21.2
2001-07-16T11:10279873010.6-27.4
2001-07-16T11:1131517008.4-11.62206
2001-07-16T11:1131866978.2-11.8
2001-07-16T11:1133046877.0-1.0
2001-07-16T11:1236436594.0-2.0
2001-07-16T11:1337926473.6-10.4
2001-07-16T11:1339436353.4-13.6
2001-07-16T11:1440976232.8-10.2
2001-07-16T11:1647965710.0-25.0
2001-07-16T11:185490523-5.1-22.1
2001-07-16T11:195671511-6.5-10.2
2001-07-16T11:205850500-7.3-10.32758
2001-07-16T11:226474461-12.5-13.0
2001-07-16T11:247306413-15.5-23.5
2001-07-16T11:257550400-17.1-24.131513
2001-07-16T11:277991377-19.5-30.5
2001-07-16T11:319290315-31.5-44.5
2001-07-16T11:329640300-31.9-49.931518
2001-07-16T11:339806293-32.5-52.5
2001-07-16T11:3610910250-41.5-62.531523
2001-07-16T11:4112380200-53.7-71.731024
2001-07-16T11:4413441169-61.1-78.1
2001-07-16T11:4714180150-64.7-80.731521
2001-07-16T11:5516610100-67.3-82.33259
2001-07-16T23:0917899228.416.41803
2001-07-16T23:1179892523.215.21757
2001-07-16T23:13152885016.213.52008
2001-07-16T23:15187281614.09.7
2001-07-16T23:15204979915.2-5.8
2001-07-16T23:16225178013.69.7
2001-07-16T23:16241476513.48.5
2001-07-16T23:18278173210.88.5
2001-07-16T23:1931627008.26.52809
2001-07-16T23:2242666111.4-0.1
2001-07-16T23:275593517-3.7-17.7
2001-07-16T23:285870500-6.1-17.132510
2001-07-16T23:306667451-10.7-20.7
2001-07-16T23:327066428-13.3-28.3
2001-07-16T23:337464406-15.9-22.9
2001-07-16T23:337580400-16.1-30.130514
2001-07-16T23:358119372-21.1-36.1
2001-07-16T23:399234319-28.3-48.3
2001-07-16T23:399369313-29.5-45.5
2001-07-16T23:409530306-30.5-36.5
2001-07-16T23:409680300-31.5-37.531016
2001-07-16T23:419918290-33.5-36.5
2001-07-16T23:4410940250-41.3-47.330020
2001-07-16T23:4711702223-48.1-51.6
2001-07-16T23:4912420200-53.5-59.529525
2001-07-16T23:5113124179-58.3-65.3
2001-07-16T23:5514220150-64.9-72.930015
2001-07-16T23:5815222127-68.9-77.9
2001-07-17T00:0316660100-66.9-78.91101
2001-07-17T11:0217899319.417.41802
2001-07-17T11:0338996924.820.4
2001-07-17T11:0479592523.018.02558
2001-07-17T11:0595590822.016.0
2001-07-17T11:05115688720.218.3
2001-07-17T11:06152885018.014.32457
2001-07-17T11:07165983717.811.8
2001-07-17T11:09235277113.810.1
2001-07-17T11:11286572511.65.6
2001-07-17T11:1231707009.64.62856
2001-07-17T11:1336166636.41.8
2001-07-17T11:1437906495.4-2.6
2001-07-17T11:164543591-0.5-5.5
2001-07-17T11:174720578-0.1-16.1
2001-07-17T11:185000558-2.5-13.5
2001-07-17T11:195465526-5.1-29.1
2001-07-17T11:215870500-6.5-38.530518
2001-07-17T11:226316472-9.5-43.5
2001-07-17T11:236464463-8.9-46.9
2001-07-17T11:257245418-14.1-40.1
2001-07-17T11:257318414-13.9-24.9
2001-07-17T11:267590400-15.9-23.931020
2001-07-17T11:298493354-23.9-34.9
2001-07-17T11:318892335-27.1-31.2
2001-07-17T11:339680300-33.5-37.430024
2001-07-17T11:3510359272-38.5-40.9
2001-07-17T11:3610666260-41.1-43.7
2001-07-17T11:3710797255-42.1-48.1
2001-07-17T11:3710930250-43.1-47.529522
2001-07-17T11:3811093244-44.3-48.1
2001-07-17T11:4111989213-50.5-60.5
2001-07-17T11:4212400200-53.9-60.930020
2001-07-17T11:4412861186-57.5-62.5
2001-07-17T11:4814200150-65.7-73.730516
2001-07-17T11:4914446144-67.5-75.5
2001-07-17T11:5215534120-70.1-79.1
2001-07-17T11:5315840114-67.3-76.3
2001-07-17T11:5616630100-67.3-77.3453
2001-07-17T23:2117899125.422.52903
2001-07-17T23:2123198525.224.5
2001-07-17T23:2238396826.425.2
2001-07-17T23:2368693525.423.1
2001-07-17T23:2379192527.019.02306
2001-07-17T23:25153285020.610.628010
2001-07-17T23:26164483919.612.6
2001-07-17T23:28217878817.87.8
2001-07-17T23:3131827009.44.83109
2001-07-17T23:3442636132.0-2.3
2001-07-17T23:3647485770.0-7.0
2001-07-17T23:375171547-3.7-8.0
2001-07-17T23:395524523-3.7-14.7
2001-07-17T23:405890500-6.7-17.732020
2001-07-17T23:416143484-6.9-34.9
2001-07-17T23:416272476-7.9-23.9
2001-07-17T23:426536460-9.3-37.3
2001-07-17T23:457600400-16.7-46.730521
2001-07-17T23:488441357-22.9-49.9
2001-07-17T23:529700300-32.5-42.530523
2001-07-17T23:5610960250-40.9-44.831013
2001-07-18T00:0112440200-53.3-57.228018
2001-07-18T00:0714230150-66.5-70.326029
2001-07-18T00:1115523121-67.7-71.7
2001-07-18T00:1516660100-67.5-71.73156
2001-07-18T11:0017899221.020.72204
2001-07-18T11:0134597324.021.9
2001-07-18T11:0150795524.424.4
2001-07-18T11:0279192523.823.13452
2001-07-18T11:04153085019.619.62653
2001-07-18T11:06210079517.212.4
2001-07-18T11:08251375713.88.9
2001-07-18T11:08272673813.22.2
2001-07-18T11:1031787009.8-7.231510
2001-07-18T11:1033096899.6-11.4
2001-07-18T11:1238516456.2-15.8
2001-07-18T11:1445315931.2-18.8
2001-07-18T11:154749577-0.5-15.5
2001-07-18T11:154874568-1.7-7.7
2001-07-18T11:164944563-1.7-11.7
2001-07-18T11:165100552-2.5-8.5
2001-07-18T11:175451528-3.3-15.3
2001-07-18T11:195890500-5.7-17.731012
2001-07-18T11:216435466-10.1-17.1
2001-07-18T11:216551459-10.7-20.7
2001-07-18T11:216669452-11.5-17.5
2001-07-18T11:226857441-12.7-21.7
2001-07-18T11:237049430-14.3-18.4
2001-07-18T11:237137425-14.5-16.6
2001-07-18T11:247444408-16.3-23.3
2001-07-18T11:247600400-16.7-20.630518
2001-07-18T11:257847387-18.3-23.1
2001-07-18T11:288839338-26.3-29.0
2001-07-18T11:299143324-28.1-32.3
2001-07-18T11:309276318-29.1-39.1
2001-07-18T11:309480309-30.5-35.5
2001-07-18T11:319690300-31.7-36.729520
2001-07-18T11:3210026286-34.3-41.3
2001-07-18T11:3510708259-40.3-43.6
2001-07-18T11:3510950250-41.5-47.530520
2001-07-18T11:4012430200-54.3-59.130017
2001-07-18T11:4513896158-66.1-70.5
2001-07-18T11:4614210150-66.1-70.528515
2001-07-18T11:5115592119-71.5-76.4
2001-07-18T11:5115849114-65.3-71.3
2001-07-18T11:5416630100-66.9-74.93158
2001-07-18T23:1417899326.422.32005
2001-07-18T23:1428498126.022.3
2001-07-18T23:1668493724.021.7
2001-07-18T23:1680692523.421.42604
2001-07-18T23:1794791022.620.1
2001-07-18T23:17105289922.215.2
2001-07-18T23:18154285019.815.730511
2001-07-18T23:20200680518.45.4
2001-07-18T23:22271674012.83.8
2001-07-18T23:24318970010.40.43307
2001-07-18T23:2534656779.0-1.0
2001-07-18T23:2638126496.6-9.4
2001-07-18T23:2740806284.2-5.8
2001-07-18T23:2843556072.4-8.6
2001-07-18T23:2845025961.0-5.0
2001-07-18T23:2845835902.0-7.0
2001-07-18T23:2948605701.6-6.4
2001-07-18T23:335910500-5.9-12.933018
2001-07-18T23:356489464-10.1-13.0
2001-07-18T23:387429410-15.7-19.3
2001-07-18T23:387620400-16.9-22.9
2001-07-18T23:397866387-18.5-25.5
2001-07-18T23:408159372-20.9-26.9
2001-07-18T23:418299365-21.3-31.3
2001-07-18T23:459720300-31.3-44.3
2001-07-18T23:4910765258-40.3-51.3
2001-07-18T23:4910980250-42.3-50.3
2001-07-18T23:5011226241-43.7-48.1
2001-07-18T23:5412450200-53.1-56.726521
2001-07-18T23:5713403172-60.3-64.6
2001-07-19T00:0014250150-65.9-70.626020
2001-07-19T00:0816670100-68.5-74.53106
2001-07-19T11:0217899418.418.41003
2001-07-19T11:0231797823.620.4
2001-07-19T11:0346996124.220.2
2001-07-19T11:0468893722.420.5
2001-07-19T11:0480792523.019.21853
2001-07-19T11:0596790823.217.2
2001-07-19T11:06127787622.217.4
2001-07-19T11:06154585020.616.12856
2001-07-19T11:07176982819.014.9
2001-07-19T11:08213679317.08.0
2001-07-19T11:10259575114.04.0
2001-07-19T11:1231937009.27.357
2001-07-19T11:1232176989.07.1
2001-07-19T11:1232536959.24.7
2001-07-19T11:1233366888.46.2
2001-07-19T11:1644476001.4-8.6
2001-07-19T11:1746095880.0-6.0
2001-07-19T11:174829572-0.3-11.3
2001-07-19T11:184913566-0.9-7.9
2001-07-19T11:195227544-2.5-9.5
2001-07-19T11:205688513-6.1-9.3
2001-07-19T11:215900500-5.7-16.728011
2001-07-19T11:216121486-6.5-21.5
2001-07-19T11:236464465-8.7-16.7
2001-07-19T11:257081429-13.5-19.5
2001-07-19T11:267443409-14.1-27.1
2001-07-19T11:267620400-15.3-28.331011
2001-07-19T11:319149325-26.7-39.7
2001-07-19T11:339720300-30.7-39.731015
2001-07-19T11:3610456270-37.1-43.1
2001-07-19T11:3710990250-41.5-48.530521
2001-07-19T11:4212460200-53.5-61.529030
2001-07-19T11:4413024183-58.3-66.3
2001-07-19T11:4814260150-66.1-73.131518
2001-07-19T11:5616660100-71.1-78.13602
2001-07-19T23:0117899425.022.72904
2001-07-19T23:0244496422.221.0
2001-07-19T23:0381092522.617.62155
2001-07-19T23:04121088321.213.2
2001-07-19T23:05154385019.010.02106
2001-07-19T23:06184882016.89.8
2001-07-19T23:09261774810.010.0
2001-07-19T23:09276273510.67.5
2001-07-19T23:1029447199.49.1
2001-07-19T23:1131797008.85.32758
2001-07-19T23:1339486373.23.2
2001-07-19T23:185219543-4.1-4.1
2001-07-19T23:205880500-6.9-8.629510
2001-07-19T23:206037490-7.9-11.2
2001-07-19T23:226576457-9.3-12.0
2001-07-19T23:247078428-12.3-15.8
2001-07-19T23:247221420-13.3-15.0
2001-07-19T23:257600400-15.3-17.932015
2001-07-19T23:278223368-19.3-24.2
2001-07-19T23:298805340-23.3-26.3
2001-07-19T23:329710300-30.1-35.131014
2001-07-19T23:3510500268-36.7-45.7
2001-07-19T23:3610980250-40.7-47.730513
2001-07-19T23:4112460200-51.9-60.928517
2001-07-19T23:4714270150-67.3-75.329016
2001-07-19T23:5316051111-73.9-80.9
2001-07-19T23:5516660100-68.7-75.73403
2001-07-20T11:0117899520.220.21002
2001-07-20T11:0130998023.421.5
2001-07-20T11:0248796022.622.1
2001-07-20T11:0372493422.217.6
2001-07-20T11:0381592521.618.41953
2001-07-20T11:0389991620.618.5
2001-07-20T11:05136086819.212.2
2001-07-20T11:05154685018.213.41455
2001-07-20T11:1029447197.67.6
2001-07-20T11:1131787007.65.13556
2001-07-20T11:1235866667.21.2
2001-07-20T11:1236236637.25.3
2001-07-20T11:1236486617.40.4
2001-07-20T11:1337236557.4-4.6
2001-07-20T11:1441196245.2-6.8
2001-07-20T11:1544236012.2-3.8
2001-07-20T11:1646675830.6-5.4
2001-07-20T11:1648615690.4-21.6
2001-07-20T11:1750175580.8-34.2
2001-07-20T11:195563521-2.1-29.1
2001-07-20T11:205900500-4.9-31.932012
2001-07-20T11:216430467-9.3-32.3
2001-07-20T11:257610400-14.3-50.33409
2001-07-20T11:298855338-25.7-39.7
2001-07-20T11:319226321-28.7-47.7
2001-07-20T11:329710300-32.3-45.332514
2001-07-20T11:3410142282-35.5-46.5
2001-07-20T11:3610980250-41.5-59.532521
2001-07-20T11:3911654226-47.1-62.1
2001-07-20T11:4011982215-49.5-56.5
2001-07-20T11:4112450200-53.3-60.3
2001-07-20T11:4513582167-63.1-69.1
2001-07-20T11:4714240150-67.5-72.5
2001-07-20T11:5416243107-72.7-79.7
2001-07-20T11:5516650100-71.7-79.7
2001-07-20T23:0117899330.223.22204
2001-07-20T23:0380692524.020.81453
2001-07-20T23:0497690722.420.0
2001-07-20T23:04112089222.015.0
2001-07-20T23:05154185019.414.41150
2001-07-20T23:07198280716.69.6
2001-07-20T23:09250075915.41.4
2001-07-20T23:11311670510.4-3.6
2001-07-20T23:11318770010.4-5.63258
2001-07-20T23:1133426879.8-10.2
2001-07-20T23:1543126102.6-14.4
2001-07-20T23:1544725982.8-24.2
2001-07-20T23:175185547-0.9-37.9
2001-07-20T23:195540523-3.7-24.7
2001-07-20T23:195784507-5.3-40.3
2001-07-20T23:205900500-6.1-29.13058
2001-07-20T23:205963496-6.7-25.7
2001-07-20T23:216169483-8.3-9.1
2001-07-20T23:226696451-11.3-11.6
2001-07-20T23:236920438-11.1-15.0
2001-07-20T23:257440409-14.9-17.9
2001-07-20T23:257620400-15.7-19.430512
2001-07-20T23:288487356-21.1-28.1
2001-07-20T23:309172324-27.1-31.2
2001-07-20T23:329720300-31.3-36.331013
2001-07-20T23:3610990250-40.7-52.730515
2001-07-20T23:3811435234-44.9-52.9
2001-07-20T23:4112470200-53.7-60.730018
2001-07-20T23:4413347174-61.5-68.5
2001-07-20T23:4714260150-66.5-72.533512
2001-07-20T23:5215642119-71.1-78.1
2001-07-20T23:5516680100-68.7-77.72253
2001-07-21T11:1117899321.820.91302
2001-07-21T11:1125798424.424.4
2001-07-21T11:1132897625.022.9
2001-07-21T11:1380092523.815.82156
2001-07-21T11:15136886620.215.2
2001-07-21T11:15149785319.811.8
2001-07-21T11:15153585019.615.12857
2001-07-21T11:18216778915.812.2
2001-07-21T11:18243876413.413.1
2001-07-21T11:2029207219.89.2
2001-07-21T11:2030597099.25.4
2001-07-21T11:2131797008.44.83106
2001-07-21T11:2132856917.83.7
2001-07-21T11:2338466453.61.8
2001-07-21T11:254576589-0.1-0.2
2001-07-21T11:264753576-0.3-3.0
2001-07-21T11:295528522-6.5-7.6
2001-07-21T11:295633515-4.7-14.7
2001-07-21T11:305880500-4.9-24.93359
2001-07-21T11:326696450-10.9-23.9
2001-07-21T11:336868440-12.7-18.7
2001-07-21T11:336955435-12.3-35.3
2001-07-21T11:347114426-12.7-45.7
2001-07-21T11:357600400-15.9-44.931512
2001-07-21T11:367905384-18.3-43.3
2001-07-21T11:398736343-23.9-32.9
2001-07-21T11:408951333-24.9-37.9
2001-07-21T11:429700300-31.3-43.332521
2001-07-21T11:4510563265-38.3-51.3
2001-07-21T11:4610960250-42.1-52.1
2001-07-21T11:4711290238-44.9-51.9
2001-07-21T11:4911663225-47.1-63.1
2001-07-21T11:5112440200-53.3-71.3
2001-07-21T11:5413177178-59.7-73.7
2001-07-21T11:5714230150-66.1-78.1
2001-07-21T12:0516640100-67.9-77.9
2001-07-21T23:0117899032.026.02203
2001-07-21T23:0378492525.823.12503
2001-07-21T23:04115888622.222.2
2001-07-21T23:05152485020.017.93206
2001-07-21T23:07201980217.411.4
2001-07-21T23:07215778916.213.1
2001-07-21T23:08234177215.210.2
2001-07-21T23:09265174412.810.3
2001-07-21T23:1131737009.84.933010
2001-07-21T23:1234976738.2-1.8
2001-07-21T23:1336946577.21.2
2001-07-21T23:1440766274.6-2.4
2001-07-21T23:1545805892.4-13.6
2001-07-21T23:1647325782.0-13.0
2001-07-21T23:205831503-6.7-18.7
2001-07-21T23:205890500-6.7-21.733511
2001-07-21T23:206047490-6.9-25.9
2001-07-21T23:216191481-8.1-16.1
2001-07-21T23:216304474-8.9-17.9
2001-07-21T23:226518461-9.3-33.3
2001-07-21T23:226704450-10.5-37.5
2001-07-21T23:236824443-11.5-24.5
2001-07-21T23:237016432-12.3-28.3
2001-07-21T23:247069429-12.9-21.9
2001-07-21T23:247194422-13.7-29.7
2001-07-21T23:247248419-13.7-24.7
2001-07-21T23:247302416-13.7-31.7
2001-07-21T23:247338414-14.1-22.1
2001-07-21T23:257393411-14.5-20.5
2001-07-21T23:257411410-14.7-21.7
2001-07-21T23:257466407-14.5-35.5
2001-07-21T23:257600400-15.7-24.731014
2001-07-21T23:267676396-16.5-21.3
2001-07-21T23:267926383-17.3-24.3
2001-07-21T23:288282365-20.5-28.5
2001-07-21T23:298737343-24.3-28.3
2001-07-21T23:298865337-24.9-34.9
2001-07-21T23:309061328-26.5-41.5
2001-07-21T23:319283318-28.1-42.1
2001-07-21T23:319442311-29.3-38.3
2001-07-21T23:329710300-31.1-41.1
2001-07-21T23:339876293-32.5-41.5
2001-07-21T23:3410193280-35.1-37.0
2001-07-21T23:3410343274-35.9-40.9
2001-07-21T23:3610705260-38.1-48.1
2001-07-21T23:3610980250-40.1-51.1
2001-07-21T23:3711117245-40.7-52.7
2001-07-21T23:4112460200-52.7-59.7
2001-07-21T23:4413235177-59.1-62.3
2001-07-21T23:4714260150-66.3-73.3
2001-07-21T23:4814632141-68.7-75.7
2001-07-21T23:5416258107-73.9-79.9
2001-07-21T23:5516660100-69.7-76.7
2001-07-22T11:1317899021.820.900
2001-07-22T11:1437496828.025.3
2001-07-22T11:1578292525.821.62855
2001-07-22T11:16124487721.819.0
2001-07-22T11:17152285020.613.62853
2001-07-22T11:18169583319.415.5
2001-07-22T11:20224278115.211.4
2001-07-22T11:22299371411.80.8
2001-07-22T11:23317070010.21.2107
2001-07-22T11:2641746192.6-4.4
2001-07-22T11:2744785960.8-16.2
2001-07-22T11:2745725890.2-15.8
2001-07-22T11:284626585-0.1-7.1
2001-07-22T11:295002558-1.3-8.3
2001-07-22T11:295176546-0.9-27.9
2001-07-22T11:315531522-3.5-26.5
2001-07-22T11:325880500-5.9-12.933011
2001-07-22T11:336181481-7.9-14.9
2001-07-22T11:336311473-8.3-22.3
2001-07-22T11:346711449-11.7-17.7
2001-07-22T11:357024431-11.1-36.1
2001-07-22T11:377349413-12.7-41.7
2001-07-22T11:377600400-14.7-35.733513
2001-07-22T11:398244367-19.5-35.5
2001-07-22T11:439178323-25.9-44.9
2001-07-22T11:449710300-30.5-46.533016
2001-07-22T11:4810980250-40.7-56.733012
2001-07-22T11:5312450200-53.7-67.733512
2001-07-22T11:5914250150-67.1-77.131013
2001-07-22T12:0014495144-68.9-77.9
2001-07-22T12:0415582120-69.1-78.1
2001-07-22T12:0616482103-73.5-82.5
2001-07-22T12:0716650100-72.9-81.9405
2001-07-22T23:0117898934.226.22003
2001-07-22T23:0378292528.021.01953
2001-07-22T23:05135786622.817.8
2001-07-22T23:05152685021.815.81752
2001-07-22T23:08237077017.06.0
2001-07-22T23:09273973713.84.8
2001-07-22T23:10279673213.28.2
2001-07-22T23:10280773113.05.0
2001-07-22T23:11318170010.43.42802
2001-07-22T23:11321769710.04.0
2001-07-22T23:1234336798.8-2.2
2001-07-22T23:1338796436.0-8.0
2001-07-22T23:1440976264.0-5.0
2001-07-22T23:1441766203.8-11.2
2001-07-22T23:1543336082.8-13.2
2001-07-22T23:1543996032.2-7.8
2001-07-22T23:1545745902.6-12.4
2001-07-22T23:185474527-3.3-15.3
2001-07-22T23:205900500-4.7-19.731013
2001-07-22T23:226500463-6.9-32.9
2001-07-22T23:257630400-14.9-30.929514
2001-07-22T23:329740300-29.7-54.731012
2001-07-22T23:3711010250-40.5-61.532010
2001-07-22T23:4112490200-53.1-68.131510
2001-07-22T23:4714290150-65.9-77.92309
2001-07-22T23:4814494145-67.9-79.9
2001-07-22T23:5215870115-71.7-83.7
2001-07-22T23:5516710100-68.5-80.53605
2001-07-23T11:0717899122.421.51303
2001-07-23T11:0723998424.224.2
2001-07-23T11:0845596028.222.2
2001-07-23T11:0857694728.421.4
2001-07-23T11:0978592526.819.82258
2001-07-23T11:11124987723.018.0
2001-07-23T11:11152785021.612.62505
2001-07-23T11:16291272213.20.2
2001-07-23T11:17318170010.8-2.200
2001-07-23T11:1836416627.0-3.0
2001-07-23T11:1939046414.81.0
2001-07-23T11:2040196324.00.0
2001-07-23T11:2040966264.6-9.4
2001-07-23T11:2041746204.4-12.6
2001-07-23T11:235189546-3.9-4.6
2001-07-23T11:245394532-2.7-6.5
2001-07-23T11:265890500-5.9-10.63055
2001-07-23T11:266000493-6.3-12.3
2001-07-23T11:276160483-6.7-19.7
2001-07-23T11:276257477-7.3-19.3
2001-07-23T11:276372470-7.5-36.5
2001-07-23T11:317620400-14.5-32.53057
2001-07-23T11:348447358-21.5-32.5
2001-07-23T11:389720300-31.5-44.528012
2001-07-23T11:4010253278-35.1-53.1
2001-07-23T11:4210990250-40.9-59.927010
2001-07-23T11:4712470200-51.7-69.728513
2001-07-23T11:5314270150-65.9-77.933013
2001-07-23T11:5414558143-68.1-79.1
2001-07-23T11:5815801116-71.3-81.3
2001-07-23T11:5916117110-67.9-78.9
2001-07-23T12:0116690100-69.7-80.72452
2001-07-23T23:0017899023.822.91805
2001-07-23T23:0021398624.821.4
2001-07-23T23:0150995325.220.2
2001-07-23T23:0271393128.216.2
2001-07-23T23:0277692527.617.62254
2001-07-23T23:0282492027.218.2
2001-07-23T23:0289191328.011.0
2001-07-23T23:04152285023.610.62906
2001-07-23T23:07237976916.29.2
2001-07-23T23:09304971012.02.0
2001-07-23T23:10317970010.84.82857
2001-07-23T23:1135166727.84.4
2001-07-23T23:1239776354.00.0
2001-07-23T23:1443536060.6-0.4
2001-07-23T23:144406602-0.1-3.0
2001-07-23T23:154814572-0.1-0.7
2001-07-23T23:185615517-3.7-4.8
2001-07-23T23:19589050032511
2001-07-23T23:196051489-6.1-6.9
2001-07-23T23:247620400-15.3-16.73209
2001-07-23T23:288614350-21.1-23.1
2001-07-23T23:319730300-29.3-31.83156
2001-07-23T23:3611010250-39.3-42.22404
2001-07-23T23:4012490200-52.5-55.4857
2001-07-23T23:4614290150-66.7-69.91158
2001-07-23T23:4714535144-68.5-71.6
2001-07-23T23:5416660100-75.9-78.92552
2001-07-24T11:1017899221.820.900
2001-07-24T11:1144496224.821.0
2001-07-24T11:1279092523.820.2203
2001-07-24T11:13101790122.620.5
2001-07-24T11:13120188222.417.4
2001-07-24T11:14152885020.014.02904
2001-07-24T11:2031727008.87.13601
2001-07-24T11:2135936656.44.2
2001-07-24T11:2238556446.2-3.8
2001-07-24T11:2342166163.4-2.6
2001-07-24T11:2342826113.8-12.2
2001-07-24T11:2444425993.0-8.0
2001-07-24T11:2546195863.2-20.8
2001-07-24T11:275394532-0.5-39.5
2001-07-24T11:295900500-3.7-41.7152
2001-07-24T11:316518462-6.9-38.9
2001-07-24T11:326860442-9.9-28.9
2001-07-24T11:326965436-10.9-21.9
2001-07-24T11:347620400-15.9-26.9105
2001-07-24T11:398996332-24.7-43.7
2001-07-24T11:419730300-30.9-45.93153
2001-07-24T11:4310091285-33.9-36.3
2001-07-24T11:4410518268-37.3-46.3
2001-07-24T11:4510990250-40.9-49.92859
2001-07-24T11:5012470200-53.1-57.921010
2001-07-24T11:5112698193-55.1-59.5
2001-07-24T11:5112798190-56.1-58.3
2001-07-24T11:5212865188-56.3-60.8
2001-07-24T11:5614098154-66.7-71.7
2001-07-24T11:5614260150-66.5-71.525511
2001-07-24T12:0316207108-73.9-80.9
2001-07-24T12:0416660100-72.9-79.92303
2001-07-24T23:0017898930.025.41704
2001-07-24T23:0277692524.422.01905
2001-07-24T23:0288991323.421.8
2001-07-24T23:03110089123.019.4
2001-07-24T23:04140586020.218.3
2001-07-24T23:04151485019.816.71755
2001-07-24T23:05170783119.013.0
2001-07-24T23:07244176214.810.1
2001-07-24T23:08266574214.85.8
2001-07-24T23:09290672113.05.0
2001-07-24T23:09302371113.4-11.6
2001-07-24T23:10316670012.2-11.81107
2001-07-24T23:11345667610.0-24.0
2001-07-24T23:1443216082.4-1.9
2001-07-24T23:1444016022.8-14.2
2001-07-24T23:1445365922.2-21.8
2001-07-24T23:164952562-0.9-21.9
2001-07-24T23:165037556-0.1-29.1
2001-07-24T23:175284539-1.7-21.7
2001-07-24T23:175447528-2.1-36.1
2001-07-24T23:185568520-2.9-16.9
2001-07-24T23:185768507-3.3-41.3
2001-07-24T23:195890500-3.7-38.72756
2001-07-24T23:206210480-5.7-42.7
2001-07-24T23:226988434-11.7-22.7
2001-07-24T23:247493406-15.5-25.5
2001-07-24T23:247610400-16.1-29.12256
2001-07-24T23:257935383-18.3-33.3
2001-07-24T23:278353362-20.1-43.1
2001-07-24T23:298965333-23.9-39.9
2001-07-24T23:319720300-30.3-43.32656
2001-07-24T23:3310181281-33.9-38.1
2001-07-24T23:3510990250-40.5-44.52359
2001-07-24T23:3711580229-45.5-52.5
2001-07-24T23:4012470200-52.7-59.72657
2001-07-24T23:4213140180-58.3-65.3
2001-07-24T23:4614270150-65.9-73.925511
2001-07-24T23:5316439104-74.7-80.7
2001-07-24T23:5416660100-68.9-75.92258
2001-07-25T11:0117898923.422.71702
2001-07-25T11:0245495823.423.4
2001-07-25T11:0259194324.422.8
2001-07-25T11:0376892523.622.72154
2001-07-25T11:05150485019.017.32304
2001-07-25T11:06176982418.812.8
2001-07-25T11:07212779016.412.4
2001-07-25T11:09250975514.65.6
2001-07-25T11:10292971811.22.2
2001-07-25T11:1131527009.81.82604
2001-07-25T11:1132596919.00.0
2001-07-25T11:1133556837.84.7
2001-07-25T11:1235996638.03.0
2001-07-25T11:1442906092.6-0.2
2001-07-25T11:205870500-5.9-8.72205
2001-07-25T11:206076487-6.5-10.5
2001-07-25T11:236857440-12.3-13.9
2001-07-25T11:257590400-16.5-18.32906
2001-07-25T11:298810339-24.7-26.6
2001-07-25T11:329690300-30.729514
2001-07-25T11:3610960250-41.129012
2001-07-25T11:4112430200-53.328516
2001-07-25T11:4613899158-66.3
2001-07-25T11:4714220150-67.526514
2001-07-25T11:5215655118-69.1
2001-07-25T11:5316179108-72.3
2001-07-25T11:5516630100-70.12859
2001-07-25T23:0017899127.222.73005
2001-07-25T23:0278992521.621.32905
2001-07-25T23:0282692121.221.2
2001-07-25T23:04152085017.417.43053
2001-07-25T23:0927937309.48.3
2001-07-25T23:1031567008.25.92907
2001-07-25T23:1032156957.86.1
2001-07-25T23:1033226867.22.7
2001-07-25T23:1238626424.62.0
2001-07-25T23:1340796254.0-2.0
2001-07-25T23:154762574-0.9-10.9
2001-07-25T23:164958560-2.9-7.4
2001-07-25T23:185556519-4.7-4.7
2001-07-25T23:195860500-6.5-6.52959
2001-07-25T23:226827441-12.5-12.6
2001-07-25T23:226984432-11.5-12.6
2001-07-25T23:247580400-14.7-17.928013
2001-07-25T23:268105373-17.3-23.3
2001-07-25T23:319700300-30.1-34.625513
2001-07-25T23:3210037286-32.9-36.5
2001-07-25T23:3510970250-40.1-46.125514
2001-07-25T23:4012450200-52.1-61.124016
2001-07-25T23:4614250150-65.7-72.726013
2001-07-25T23:4814792137-70.9-77.9
2001-07-25T23:5416660100-67.1-74.13159
2001-07-26T11:0117899518.617.3304
2001-07-26T11:0256395117.617.6
2001-07-26T11:0364494219.418.6
2001-07-26T11:0380692519.217.5658
2001-07-26T11:04106789717.017.0
2001-07-26T11:04117288618.216.9
2001-07-26T11:05153285017.213.23605
2001-07-26T11:06171383216.813.4
2001-07-26T11:09256075210.89.2
2001-07-26T11:1029437189.66.7
2001-07-26T11:1131677009.21.23104
2001-07-26T11:1234546767.4-4.6
2001-07-26T11:1337366535.00.0
2001-07-26T11:1338246465.4-2.6
2001-07-26T11:175027556-2.5-15.5
2001-07-26T11:185213543-4.3-10.3
2001-07-26T11:185345534-2.9-14.9
2001-07-26T11:185464526-3.5-28.5
2001-07-26T11:195661513-4.5-28.5
2001-07-26T11:205831502-5.9-15.9
2001-07-26T11:205870500-5.7-17.73057
2001-07-26T11:206028490-6.1-25.1
2001-07-26T11:226433465-10.1-32.1
2001-07-26T11:226550458-8.7-42.7
2001-07-26T11:237000432-10.5-50.5
2001-07-26T11:257590400-15.9-51.931011
2001-07-26T11:278130372-20.5-53.5
2001-07-26T11:308962332-24.7-51.7
2001-07-26T11:329690300-31.5-53.530017
2001-07-26T11:3610960250-42.1-62.129518
2001-07-26T11:4112430200-52.5-73.529528
2001-07-26T11:4714230150-66.5-82.531025
2001-07-26T11:4814434145-68.3-84.3
2001-07-26T11:5115315125-71.5-86.5
2001-07-26T11:5516650100-68.3-83.32907
2001-07-26T23:0417899726.018.0606
2001-07-26T23:0683492520.015.3658
2001-07-26T23:09155785013.613.0707
2001-07-26T23:09172683312.212.0
2001-07-26T23:09175683012.410.8
2001-07-26T23:09180782514.22.2
2001-07-26T23:10186981916.6-2.4
2001-07-26T23:11246476312.0-1.0
2001-07-26T23:13296971810.2-14.8
2001-07-26T23:1431867008.6-8.43354
2001-07-26T23:1534496788.8-35.2
2001-07-26T23:1845785901.2-22.8
2001-07-26T23:1948265720.0-14.0
2001-07-26T23:204995560-0.5-21.5
2001-07-26T23:205109552-1.3-17.3
2001-07-26T23:215372534-1.9-20.9
2001-07-26T23:215432530-2.1-16.1
2001-07-26T23:225659515-3.3-24.3
2001-07-26T23:235900500-4.9-22.93159
2001-07-26T23:246382470-8.1-20.1
2001-07-26T23:256582458-8.1-44.1
2001-07-26T23:267015433-9.9-47.9
2001-07-26T23:287487407-13.9-48.9
2001-07-26T23:287620400-15.1-34.128010
2001-07-26T23:308203370-18.9-45.9
2001-07-26T23:328655348-22.9-37.9
2001-07-26T23:359730300-32.1-46.132011
2001-07-26T23:3710212280-35.9-46.9
2001-07-26T23:3810489269-37.5-43.5
2001-07-26T23:3910990250-40.9-45.929023
2001-07-26T23:4412470200-53.3-57.828527
2001-07-26T23:4813460171-60.1-69.1
2001-07-26T23:5014270150-65.3-73.328021
2001-07-26T23:5616018112-71.1-79.1
2001-07-26T23:5816680100-70.9-78.931010
2001-07-27T11:02178100016.816.1805
2001-07-27T11:0350896220.015.0
2001-07-27T11:0484792518.015.41058
2001-07-27T11:06138586814.613.5
2001-07-27T11:06145386114.613.3
2001-07-27T11:07156785015.44.41354
2001-07-27T11:07163784316.0-6.0
2001-07-27T11:07173883316.2-7.8
2001-07-27T11:08201680614.60.6
2001-07-27T11:10254075711.2-3.8
2001-07-27T11:10270674210.8-10.2
2001-07-27T11:1231947008.6-8.42202
2001-07-27T11:1233486879.2-21.8
2001-07-27T11:1437776525.8-7.2
2001-07-27T11:1541856203.0-11.0
2001-07-27T11:1645715912.4-20.6
2001-07-27T11:195513525-3.7-19.7
2001-07-27T11:205603519-3.5-28.5
2001-07-27T11:215910500-5.1-28.12306
2001-07-27T11:226326474-7.3-42.3
2001-07-27T11:236592458-9.3-43.3
2001-07-27T11:246884441-8.7-29.7
2001-07-27T11:267479408-13.9-23.9
2001-07-27T11:267630400-14.5-25.52658
2001-07-27T11:298561353-21.9-34.9
2001-07-27T11:339730300-32.9-36.02809
2001-07-27T11:349871294-34.1-36.8
2001-07-27T11:3510260278-35.9-45.9
2001-07-27T11:3610616264-38.9-49.9
2001-07-27T11:3710990250-41.9-50.930018
2001-07-27T11:4011663226-47.5-53.5
2001-07-27T11:4212460200-53.9-60.930021
2001-07-27T11:4713853160-64.9-70.9
2001-07-27T11:4814250150-66.1-72.131515
2001-07-27T11:5616660100-68.9-75.93357
2001-07-27T23:0117899726.620.61156
2001-07-27T23:0383392520.417.31207
2001-07-27T23:06155985015.213.61556
2001-07-27T23:06169983614.213.6
2001-07-27T23:09257275311.47.9
2001-07-27T23:10292172210.2-0.8
2001-07-27T23:10306071010.01.0
2001-07-27T23:1131907008.65.62406
2001-07-27T23:1439986344.02.3
2001-07-27T23:185313538-1.7-5.5
2001-07-27T23:205910500-6.1-8.429013
2001-07-27T23:226606457-10.3-11.4
2001-07-27T23:247160425-13.5-16.7
2001-07-27T23:257524405-14.9-17.7
2001-07-27T23:257620400-14.3-19.227016
2001-07-27T23:267850388-15.5-21.5
2001-07-27T23:308958334-24.5-27.1
2001-07-27T23:329740300-30.1-33.528518
2001-07-27T23:3510479270-35.9-41.9
2001-07-27T23:3711010250-40.5-46.527516
2001-07-27T23:4112490200-53.3-60.328021
2001-07-27T23:4714280150-65.1-73.129017
2001-07-27T23:5215754117-74.9-81.9
2001-07-27T23:5215855115-71.5-78.5
2001-07-27T23:5516680100-70.5-77.53208
2001-07-28T11:0217899621.820.91202
2001-07-28T11:0482292519.419.42205
2001-07-28T11:06154985016.616.42355
2001-07-28T11:1231817007.87.62757
2001-07-28T11:1335646687.04.5
2001-07-28T11:1439896344.01.2
2001-07-28T11:1643676052.8-1.0
2001-07-28T11:1644346003.2-6.8
2001-07-28T11:185043556-1.7-8.7
2001-07-28T11:205800505-5.9-10.9
2001-07-28T11:215890500-6.1-12.128511
2001-07-28T11:226240478-7.3-24.3
2001-07-28T11:226354471-8.3-23.3
2001-07-28T11:236437466-8.1-32.1
2001-07-28T11:257090428-12.7-28.7
2001-07-28T11:257324415-14.7-22.7
2001-07-28T11:267610400-16.1-26.124515
2001-07-28T11:298391360-22.5-25.1
2001-07-28T11:298493355-22.9-27.9
2001-07-28T11:329198322-28.3-34.3
2001-07-28T11:339710300-31.9-41.926513
2001-07-28T11:3510168281-34.5-50.5
2001-07-28T11:3710970250-40.5-44.627523
2001-07-28T11:4212450200-52.9-58.927522
2001-07-28T11:4713845160-65.3-70.3
2001-07-28T11:4814240150-68.1-72.728017
2001-07-28T11:5616640100-68.1-74.12656
2001-07-28T23:0717899325.623.82703
2001-07-28T23:0724998525.620.6
2001-07-28T23:0839296925.821.9
2001-07-28T23:0980292522.420.32555
2001-07-28T23:11153385017.814.73257
2001-07-28T23:1627737339.69.6
2001-07-28T23:1731697008.28.22657
2001-07-28T23:1834436777.47.2
2001-07-28T23:2042616121.41.4
2001-07-28T23:265880500-6.3-7.026511
2001-07-28T23:266085487-7.7-8.5
2001-07-28T23:276133484-7.9-10.7
2001-07-28T23:276393468-9.1-10.5
2001-07-28T23:296815443-10.5-14.1
2001-07-28T23:317600400-16.1-18.126019
2001-07-28T23:338042377-18.9-20.4
2001-07-28T23:358716344-23.7-27.4
2001-07-28T23:368930334-25.1-27.0
2001-07-28T23:369128325-25.9-29.9
2001-07-28T23:389700300-30.7-40.725526
2001-07-28T23:3910037286-33.1-39.1
2001-07-28T23:4210970250-40.9-50.925531
2001-07-28T23:4511617227-46.5-52.5
2001-07-28T23:4712450200-53.3-60.325031
2001-07-28T23:5013224177-59.3-66.3
2001-07-28T23:5314250150-64.7-71.726027
2001-07-29T00:0116724100-64.9-72.93005
2001-07-29T11:0317899320.820.62402
2001-07-29T11:0438996923.621.0
2001-07-29T11:0580292521.020.43106
2001-07-29T11:07132687017.416.1
2001-07-29T11:07145385717.213.2
2001-07-29T11:07153085016.814.12856
2001-07-29T11:08182382115.212.2
2001-07-29T11:09207279713.86.8
2001-07-29T11:09212679214.2-2.8
2001-07-29T11:10235077112.00.0
2001-07-29T11:10240476612.4-6.6
2001-07-29T11:1126907409.40.4
2001-07-29T11:12282672811.0-22.0
2001-07-29T11:1331607009.2-23.83208
2001-07-29T11:1435456688.4-28.6
2001-07-29T11:225870500-7.7-46.73058
2001-07-29T11:236266475-10.1-48.1
2001-07-29T11:236429465-11.5-28.5
2001-07-29T11:256934435-16.5-30.5
2001-07-29T11:277560400-20.3-45.330510
2001-07-29T11:298111371-24.3-50.3
2001-07-29T11:349630300-32.7-63.728021
2001-07-29T11:3610186277-35.9-65.9
2001-07-29T11:3710414268-37.7-52.7
2001-07-29T11:3810900250-40.9-56.928527
2001-07-29T11:4212126208-48.7-71.7
2001-07-29T11:4312380200-51.3-74.328033
2001-07-29T11:4914190150-65.1-82.128028
2001-07-29T11:5415786115-69.7-83.7
2001-07-29T11:5716630100-65.9-79.92758
2001-07-29T23:0817899332.020.02804
2001-07-29T23:0827798229.418.4
2001-07-29T23:1080392524.417.42953
2001-07-29T23:12134186918.816.2
2001-07-29T23:12153685018.013.02953
2001-07-29T23:13180982315.811.2
2001-07-29T23:14194381015.48.4
2001-07-29T23:14205979917.0-1.0
2001-07-29T23:14211279417.40.4
2001-07-29T23:15244976315.22.2
2001-07-29T23:16269574114.2-4.8
2001-07-29T23:18317970010.0-14.055
2001-07-29T23:2141706203.0-35.0
2001-07-29T23:255486525-7.3-38.3
2001-07-29T23:265605517-7.5-33.5
2001-07-29T23:265635515-7.7-21.7
2001-07-29T23:265741508-8.7-17.7
2001-07-29T23:275870500-8.1-26.129515
2001-07-29T23:275979493-7.9-40.9
2001-07-29T23:286234477-9.9-27.9
2001-07-29T23:286348470-9.5-41.5
2001-07-29T23:327570400-19.9-36.930521
2001-07-29T23:379033327-29.1-61.1
2001-07-29T23:399502306-32.9-51.9
2001-07-29T23:399650300-32.3-58.329529
2001-07-29T23:409840292-33.3-64.3
2001-07-29T23:4310910250-42.3-62.329534
2001-07-29T23:4812390200-52.7-71.729038
2001-07-29T23:5213534167-60.9-77.9
2001-07-29T23:5414190150-63.9-80.928530
2001-07-30T00:0116297106-66.7-85.7
2001-07-30T00:0216650100-65.5-84.52906
2001-07-30T11:0017899519.618.41903
2001-07-30T11:0021399123.419.8
2001-07-30T11:0029298226.020.0
2001-07-30T11:0139997026.418.4
2001-07-30T11:0282092523.018.22653
2001-07-30T11:04137686718.615.1
2001-07-30T11:04150585419.28.2
2001-07-30T11:05155285019.07.03452
2001-07-30T11:05169483618.65.6
2001-07-30T11:05174583119.0-4.0
2001-07-30T11:05183882219.02.0
2001-07-30T11:06213379417.44.4
2001-07-30T11:09293072210.80.8
2001-07-30T11:1031977009.6-4.43603
2001-07-30T11:1136436637.2-12.8
2001-07-30T11:1342786131.6-13.4
2001-07-30T11:1547215800.0-20.0
2001-07-30T11:164999560-2.9-19.9
2001-07-30T11:175300539-4.3-36.3
2001-07-30T11:195900500-8.3-41.33206
2001-07-30T11:206231479-10.3-44.3
2001-07-30T11:206426467-10.5-39.5
2001-07-30T11:247590400-20.3-47.33357
2001-07-30T11:278499353-27.7-53.7
2001-07-30T11:309309315-31.7-59.7
2001-07-30T11:319660300-33.7-45.731020
2001-07-30T11:3410513265-41.5-46.5
2001-07-30T11:3510910250-44.1-50.130524
2001-07-30T11:4012370200-53.5-60.529027
2001-07-30T11:4112764188-56.9-64.9
2001-07-30T11:4614170150-62.7-72.728523
2001-07-30T11:5216102109-69.1-80.1
2001-07-30T11:5416620100-64.1-76.130510
2001-07-30T23:0817899531.422.42004
2001-07-30T23:1082992527.221.21757
2001-07-30T23:11106990025.414.4
2001-07-30T23:11116689024.64.6
2001-07-30T23:12143486324.22.2
2001-07-30T23:13157185023.23.21955
2001-07-30T23:16266074814.01.0
2001-07-30T23:17299171912.2-11.8
2001-07-30T23:18322370011.8-8.2206
2001-07-30T23:1934396829.8-1.2
2001-07-30T23:1936356668.6-6.4
2001-07-30T23:234861572-2.9-10.9
2001-07-30T23:245014561-3.5-21.5
2001-07-30T23:275930500-7.1-39.13504
2001-07-30T23:327620400-19.7-44.730510
2001-07-30T23:348017379-22.9-36.9
2001-07-30T23:348114374-23.1-33.1
2001-07-30T23:389327316-30.1-47.1
2001-07-30T23:399700300-33.1-49.131512
2001-07-30T23:4310738258-41.9-51.9
2001-07-30T23:4310950250-43.1-54.132012
2001-07-30T23:4812410200-56.1-66.130515
2001-07-30T23:5414200150-64.9-71.929521
2001-07-30T23:5815560120-64.1-72.1
2001-07-31T00:0216660100-66.1-76.13155
2001-07-31T11:0217899921.020.71402
2001-07-31T11:0221399523.621.3
2001-07-31T11:0340897326.619.6
2001-07-31T11:0359995225.618.6
2001-07-31T11:0485592523.220.42107
2001-07-31T11:05108290121.021.0
2001-07-31T11:06140286820.213.2
2001-07-31T11:06148186021.23.2
2001-07-31T11:07158985021.04.01853
2001-07-31T11:07173283620.61.6
2001-07-31T11:08211879917.63.6
2001-07-31T11:10266374913.8-4.2
2001-07-31T11:11292372611.44.4
2001-07-31T11:11307371311.6-2.4
2001-07-31T11:12323670010.8-2.21405
2001-07-31T11:1540366355.4-8.6
2001-07-31T11:195310541-7.1-13.1
2001-07-31T11:195426533-7.1-19.1
2001-07-31T11:215930500-8.7-31.71004
2001-07-31T11:216023494-8.5-33.5
2001-07-31T11:257097429-16.5-41.5
2001-07-31T11:257345415-18.1-29.1
2001-07-31T11:267620400-19.7-35.72857
2001-07-31T11:277921384-21.5-31.5
2001-07-31T11:308635348-28.1-39.1
2001-07-31T11:318929334-27.9-55.9
2001-07-31T11:339700300-33.7-60.732018
2001-07-31T11:3710950250-41.9-66.934023
2001-07-31T11:4212430200-52.7-74.734021
2001-07-31T11:4613680164-62.1-79.1
2001-07-31T11:4814230150-64.3-81.333020
2001-07-31T11:5014912134-68.1-84.1
2001-07-31T11:5215331125-65.5-81.5
2001-07-31T11:5616670100-72.1-86.13457